createdAt,value
2023-01-19T00:01:58.500Z,0.50
2023-01-19T00:04:47.342Z,1.00
2023-01-19T00:07:34.884Z,0.40
2023-01-19T00:10:24.215Z,0.30
2023-01-19T00:13:14.775Z,2.10
2023-01-19T00:16:11.803Z,0.20
2023-01-19T00:19:00.772Z,0.30
2023-01-19T00:21:48.760Z,0.00
2023-01-19T00:24:36.216Z,-0.20
2023-01-19T00:27:28.022Z,0.10
2023-01-19T00:30:27.777Z,0.30
2023-01-19T00:33:18.275Z,0.10
2023-01-19T00:36:06.499Z,0.10
2023-01-19T00:38:54.105Z,-1.90
2023-01-19T00:41:59.576Z,0.20
2023-01-19T00:44:47.462Z,0.30
2023-01-19T00:47:35.537Z,0.40
2023-01-19T00:50:27.720Z,0.30
2023-01-19T00:53:16.316Z,0.30
2023-01-19T00:56:03.566Z,0.80
2023-01-19T00:58:51.750Z,0.20
2023-01-19T01:01:46.123Z,0.20
2023-01-19T01:04:35.342Z,0.20
2023-01-19T01:07:26.786Z,0.40
2023-01-19T01:10:16.626Z,0.20
2023-01-19T01:13:22.551Z,0.10
2023-01-19T01:16:11.960Z,0.10
2023-01-19T01:19:00.304Z,-0.70
2023-01-19T01:21:49.435Z,0.10
2023-01-19T01:24:39.538Z,-0.50
2023-01-19T01:27:28.908Z,0.10
2023-01-19T01:30:18.282Z,0.10
2023-01-19T01:33:05.807Z,0.30
2023-01-19T01:35:57.207Z,0.00
2023-01-19T01:38:52.874Z,1.00
2023-01-19T01:41:49.358Z,0.10
2023-01-19T01:44:54.014Z,0.00
2023-01-19T01:47:48.585Z,0.30
2023-01-19T01:50:38.902Z,0.00
2023-01-19T01:53:26.844Z,0.00
2023-01-19T01:56:16.866Z,-0.10
2023-01-19T01:59:12.560Z,-0.10
2023-01-19T02:02:18.918Z,-0.10
2023-01-19T02:05:14.011Z,0.00
2023-01-19T02:08:26.085Z,-0.10
2023-01-19T02:11:31.940Z,0.60
2023-01-19T02:14:21.301Z,-0.10
2023-01-19T02:17:10.208Z,0.00
2023-01-19T02:20:04.082Z,0.00
2023-01-19T02:22:56.976Z,-0.10
2023-01-19T02:25:51.941Z,0.30
2023-01-19T02:28:42.578Z,0.70
2023-01-19T02:31:33.237Z,-0.20
2023-01-19T02:34:24.860Z,-0.10
2023-01-19T02:37:20.255Z,0.00
2023-01-19T02:40:13.225Z,-0.10
2023-01-19T02:43:16.121Z,-2.50
2023-01-19T02:46:05.857Z,0.00
2023-01-19T02:48:58.347Z,0.00
2023-01-19T02:51:51.891Z,0.00
2023-01-19T02:54:46.619Z,0.10
2023-01-19T02:57:48.171Z,0.10
2023-01-19T03:00:47.598Z,0.20
2023-01-19T03:03:52.179Z,1.00
2023-01-19T03:06:46.187Z,0.20
2023-01-19T03:09:35.635Z,-1.00
2023-01-19T03:12:28.608Z,0.30
2023-01-19T03:15:21.318Z,0.20
2023-01-19T03:18:14.796Z,0.30
2023-01-19T03:21:06.054Z,0.30
2023-01-19T03:23:57.112Z,0.40
2023-01-19T03:26:47.404Z,1.50
2023-01-19T03:29:40.678Z,0.50
2023-01-19T03:32:33.621Z,0.50
2023-01-19T03:35:39.389Z,0.60
2023-01-19T03:38:40.963Z,0.90
2023-01-19T03:41:29.756Z,1.00
2023-01-19T03:44:22.855Z,1.20
2023-01-19T03:47:13.198Z,1.40
2023-01-19T03:50:03.572Z,0.90
2023-01-19T03:53:07.306Z,0.90
2023-01-19T03:56:03.152Z,0.60
2023-01-19T03:58:51.150Z,1.00
2023-01-19T04:01:44.701Z,2.70
2023-01-19T04:04:38.718Z,1.50
2023-01-19T04:07:26.324Z,1.00
2023-01-19T04:10:16.684Z,-0.10
2023-01-19T04:13:07.108Z,1.10
2023-01-19T04:16:21.590Z,1.10
2023-01-19T04:19:12.671Z,1.00
2023-01-19T04:22:03.505Z,1.00
2023-01-19T04:24:54.214Z,1.00
2023-01-19T04:27:46.940Z,1.00
2023-01-19T04:30:40.597Z,3.00
2023-01-19T04:33:28.405Z,0.90
2023-01-19T04:36:19.531Z,1.00
2023-01-19T04:39:14.551Z,0.90
2023-01-19T04:42:04.178Z,0.80
2023-01-19T04:45:01.475Z,0.90
2023-01-19T04:47:51.723Z,0.80
2023-01-19T04:50:43.513Z,0.80
2023-01-19T04:53:37.454Z,0.80
2023-01-19T04:56:28.027Z,0.60
2023-01-19T04:59:18.054Z,0.70
2023-01-19T05:02:10.476Z,0.70
2023-01-19T05:04:59.993Z,0.60
2023-01-19T05:07:47.909Z,0.60
2023-01-19T05:10:36.767Z,0.60
2023-01-19T05:13:29.658Z,0.60
2023-01-19T05:16:19.605Z,0.60
2023-01-19T05:19:11.245Z,0.50
2023-01-19T05:21:59.599Z,0.60
2023-01-19T05:24:47.329Z,0.50
2023-01-19T05:27:39.386Z,0.40
2023-01-19T05:30:29.338Z,0.40
2023-01-19T05:33:21.859Z,0.40
2023-01-19T05:36:13.577Z,0.40
2023-01-19T05:39:11.731Z,0.60
2023-01-19T05:41:59.928Z,0.40
2023-01-19T05:44:49.005Z,0.40
2023-01-19T05:47:37.419Z,-1.20
2023-01-19T05:50:25.630Z,0.40
2023-01-19T05:53:15.817Z,-0.20
2023-01-19T05:56:13.150Z,0.30
2023-01-19T05:59:02.717Z,0.40
2023-01-19T06:01:52.771Z,0.50
2023-01-19T06:04:40.050Z,0.30
2023-01-19T06:07:29.204Z,0.70
2023-01-19T06:10:21.245Z,0.50
2023-01-19T06:13:21.606Z,0.30
2023-01-19T06:16:21.224Z,0.20
2023-01-19T06:19:13.552Z,1.20
2023-01-19T06:22:01.082Z,0.30
2023-01-19T06:24:55.746Z,0.20
2023-01-19T06:27:48.929Z,0.80
2023-01-19T06:30:41.548Z,0.20
2023-01-19T06:33:29.202Z,0.10
2023-01-19T06:36:25.940Z,0.10
2023-01-19T06:39:20.486Z,0.10
2023-01-19T06:42:20.269Z,0.80
2023-01-19T06:45:15.929Z,0.30
2023-01-19T06:48:11.084Z,0.20
2023-01-19T06:51:03.553Z,0.10
2023-01-19T06:54:02.966Z,0.20
2023-01-19T06:56:52.367Z,-0.80
2023-01-19T06:59:39.973Z,0.20
2023-01-19T07:02:30.131Z,0.30
2023-01-19T07:05:18.893Z,0.40
2023-01-19T07:08:06.688Z,0.40
2023-01-19T07:11:22.167Z,1.70
2023-01-19T07:14:15.917Z,0.70
2023-01-19T07:17:10.389Z,0.70
2023-01-19T07:19:59.741Z,0.70
2023-01-19T07:22:47.677Z,0.60
2023-01-19T07:25:35.431Z,0.50
2023-01-19T07:28:23.513Z,0.40
2023-01-19T07:31:11.691Z,0.40
2023-01-19T07:34:00.490Z,0.40
2023-01-19T07:36:50.079Z,0.20
2023-01-19T07:39:39.127Z,0.20
2023-01-19T07:42:26.660Z,0.20
2023-01-19T07:45:15.375Z,0.20
2023-01-19T07:48:03.449Z,0.40
2023-01-19T07:50:51.290Z,0.20
2023-01-19T07:53:42.099Z,0.30
2023-01-19T07:56:33.680Z,0.30
2023-01-19T07:59:22.271Z,0.20
2023-01-19T08:02:11.314Z,0.20
2023-01-19T08:04:59.384Z,0.30
2023-01-19T08:07:47.236Z,0.30
2023-01-19T08:10:36.327Z,0.70
2023-01-19T08:13:24.589Z,2.70
2023-01-19T08:16:12.378Z,0.30
2023-01-19T08:19:00.445Z,0.30
2023-01-19T08:21:47.878Z,-0.90
2023-01-19T08:24:35.551Z,0.40
2023-01-19T08:27:24.624Z,0.10
2023-01-19T08:30:13.773Z,0.30
2023-01-19T08:33:07.480Z,0.90
2023-01-19T08:35:55.709Z,1.10
2023-01-19T08:38:47.520Z,1.30
2023-01-19T08:41:35.787Z,2.00
2023-01-19T08:44:27.305Z,1.20
2023-01-19T08:47:17.468Z,1.50
2023-01-19T08:50:05.960Z,1.50
2023-01-19T08:52:53.375Z,1.60
2023-01-19T08:55:44.118Z,1.70
2023-01-19T08:58:32.623Z,1.70
2023-01-19T09:01:22.518Z,1.70
2023-01-19T09:04:10.655Z,1.70
2023-01-19T09:07:07.670Z,3.10
2023-01-19T09:09:55.554Z,1.70
2023-01-19T09:12:43.779Z,1.50
2023-01-19T09:15:34.064Z,1.50
2023-01-19T09:18:23.651Z,1.30
2023-01-19T09:21:11.251Z,1.40
2023-01-19T09:24:02.168Z,3.50
2023-01-19T09:26:50.604Z,1.50
2023-01-19T09:29:41.956Z,1.40
2023-01-19T09:32:32.872Z,1.40
2023-01-19T09:35:25.093Z,1.70
2023-01-19T09:38:15.316Z,3.40
2023-01-19T09:41:04.562Z,1.70
2023-01-19T09:43:54.179Z,1.70
2023-01-19T09:46:42.955Z,1.80
2023-01-19T09:49:35.051Z,1.90
2023-01-19T09:52:30.907Z,1.90
2023-01-19T09:55:27.416Z,2.00
2023-01-19T09:58:19.571Z,2.00
2023-01-19T10:01:14.291Z,2.00
2023-01-19T10:04:11.379Z,2.20
2023-01-19T10:07:06.099Z,2.30
2023-01-19T10:10:07.118Z,2.40
2023-01-19T10:13:17.792Z,2.50
2023-01-19T10:16:10.885Z,2.40
2023-01-19T10:19:01.221Z,2.60
2023-01-19T10:21:50.267Z,2.60
2023-01-19T10:24:40.007Z,2.60
2023-01-19T10:27:31.141Z,1.90
2023-01-19T10:30:22.954Z,2.60
2023-01-19T10:33:12.745Z,2.50
2023-01-19T10:36:01.037Z,2.60
2023-01-19T10:38:48.970Z,2.70
2023-01-19T10:41:44.722Z,2.60
2023-01-19T10:44:36.736Z,2.60
2023-01-19T10:47:29.253Z,2.60
2023-01-19T10:50:25.150Z,3.80
2023-01-19T10:53:21.988Z,3.10
2023-01-19T10:56:22.312Z,3.10
2023-01-19T10:59:31.803Z,2.90
2023-01-19T11:02:27.591Z,4.90
2023-01-19T11:05:24.703Z,3.00
2023-01-19T11:08:23.744Z,2.80
2023-01-19T11:11:12.744Z,2.70
2023-01-19T11:14:06.421Z,1.50
2023-01-19T11:16:56.511Z,3.20
2023-01-19T11:19:53.946Z,2.50
2023-01-19T11:22:41.633Z,2.40
2023-01-19T11:25:31.950Z,2.20
2023-01-19T11:28:20.239Z,2.50
2023-01-19T11:31:21.997Z,2.50
2023-01-19T11:34:25.085Z,2.90
2023-01-19T11:37:28.173Z,2.70
2023-01-19T11:40:17.448Z,3.30
2023-01-19T11:43:05.528Z,3.00
2023-01-19T11:45:53.923Z,3.00
2023-01-19T11:48:48.730Z,3.10
2023-01-19T11:51:39.167Z,3.10
2023-01-19T11:54:33.459Z,3.30
2023-01-19T11:57:21.167Z,3.40
2023-01-19T12:00:22.009Z,3.60
2023-01-19T12:03:19.188Z,3.60
2023-01-19T12:06:08.467Z,3.60
2023-01-19T12:08:58.118Z,3.80
2023-01-19T12:11:50.308Z,3.70
2023-01-19T12:14:41.596Z,4.00
2023-01-19T12:17:31.924Z,4.00
2023-01-19T12:20:26.474Z,4.10
2023-01-19T12:23:21.620Z,4.40
2023-01-19T12:26:23.252Z,4.10
2023-01-19T12:29:14.960Z,4.10
2023-01-19T12:32:27.622Z,4.00
2023-01-19T12:35:34.271Z,4.20
2023-01-19T12:38:39.256Z,4.30
2023-01-19T12:41:31.451Z,3.70
2023-01-19T12:44:23.767Z,3.70
2023-01-19T12:47:23.023Z,3.80
2023-01-19T12:50:17.412Z,3.90
2023-01-19T12:53:08.127Z,4.00
2023-01-19T12:56:00.230Z,4.00
2023-01-19T12:58:49.766Z,4.00
2023-01-19T13:01:41.420Z,3.90
2023-01-19T13:04:33.203Z,3.80
2023-01-19T13:07:22.429Z,3.80
2023-01-19T13:10:25.167Z,4.40
2023-01-19T13:13:19.247Z,4.00
2023-01-19T13:16:22.613Z,3.80
2023-01-19T13:19:17.687Z,3.80
2023-01-19T13:22:25.061Z,1.90
2023-01-19T13:25:28.864Z,3.90
2023-01-19T13:28:32.383Z,4.50
2023-01-19T13:31:20.407Z,3.90
2023-01-19T13:34:16.212Z,3.80
2023-01-19T13:37:06.318Z,5.20
2023-01-19T13:39:55.821Z,4.30
2023-01-19T13:42:48.695Z,4.20
2023-01-19T13:45:41.098Z,4.60
2023-01-19T13:48:29.703Z,4.40
2023-01-19T13:51:19.403Z,4.50
2023-01-19T13:54:15.899Z,4.60
2023-01-19T13:57:04.760Z,4.70
2023-01-19T14:00:08.379Z,5.00
2023-01-19T14:03:00.523Z,7.60
2023-01-19T14:06:00.636Z,5.30
2023-01-19T14:09:05.452Z,4.90
2023-01-19T14:12:13.244Z,5.40
2023-01-19T14:15:10.972Z,5.80
2023-01-19T14:18:24.392Z,6.50
2023-01-19T14:21:14.046Z,4.90
2023-01-19T14:24:08.359Z,4.80
2023-01-19T14:26:56.468Z,4.90
2023-01-19T14:29:47.826Z,4.80
2023-01-19T14:32:47.741Z,4.70
2023-01-19T14:35:51.511Z,4.40
2023-01-19T14:38:44.076Z,4.20
2023-01-19T14:41:38.302Z,4.10
2023-01-19T14:44:31.186Z,4.20
2023-01-19T14:47:45.034Z,4.20
2023-01-19T14:50:35.996Z,4.00
2023-01-19T14:53:28.003Z,4.00
2023-01-19T14:56:29.937Z,3.90
2023-01-19T14:59:17.942Z,3.80
2023-01-19T15:02:05.891Z,3.80
2023-01-19T15:05:08.246Z,4.00
2023-01-19T15:07:57.832Z,2.10
2023-01-19T15:10:46.941Z,3.70
2023-01-19T15:13:34.488Z,3.50
2023-01-19T15:16:26.431Z,1.90
2023-01-19T15:19:16.312Z,3.60
2023-01-19T15:22:10.674Z,3.50
2023-01-19T15:25:02.421Z,3.50
2023-01-19T15:27:50.967Z,3.40
2023-01-19T15:30:41.582Z,3.40
2023-01-19T15:33:38.236Z,3.30
2023-01-19T15:36:26.203Z,3.50
2023-01-19T15:39:15.441Z,3.40
2023-01-19T15:42:03.281Z,3.70
2023-01-19T15:44:52.600Z,3.80
2023-01-19T15:47:40.891Z,4.60
2023-01-19T15:50:31.315Z,3.30
2023-01-19T15:53:24.719Z,3.10
2023-01-19T15:56:17.237Z,2.70
2023-01-19T15:59:11.571Z,3.10
2023-01-19T16:02:04.103Z,2.80
2023-01-19T16:04:51.706Z,0.50
2023-01-19T16:07:47.040Z,2.70
2023-01-19T16:10:37.876Z,3.40
2023-01-19T16:13:30.294Z,2.80
2023-01-19T16:16:21.958Z,2.70
2023-01-19T16:19:11.147Z,4.20
2023-01-19T16:22:00.005Z,2.50
2023-01-19T16:24:48.461Z,2.30
2023-01-19T16:27:39.675Z,3.60
2023-01-19T16:30:34.355Z,1.50
2023-01-19T16:33:26.289Z,1.70
2023-01-19T16:36:21.891Z,3.50
2023-01-19T16:39:12.823Z,1.60
2023-01-19T16:42:01.009Z,1.40
2023-01-19T16:44:48.733Z,1.30
2023-01-19T16:47:39.859Z,1.10
2023-01-19T16:50:27.374Z,1.30
2023-01-19T16:53:14.935Z,1.00
2023-01-19T16:56:06.593Z,0.90
2023-01-19T16:58:58.107Z,0.90
2023-01-19T17:01:46.996Z,0.70
2023-01-19T17:04:37.230Z,0.60
2023-01-19T17:07:25.621Z,-1.00
2023-01-19T17:10:14.050Z,0.50
2023-01-19T17:13:02.159Z,0.70
2023-01-19T17:15:53.351Z,0.60
2023-01-19T17:18:42.157Z,0.40
2023-01-19T17:21:31.958Z,0.30
2023-01-19T17:24:19.696Z,0.30
2023-01-19T17:27:07.245Z,0.30
2023-01-19T17:29:56.607Z,0.80
2023-01-19T17:32:44.339Z,0.40
2023-01-19T17:35:31.794Z,2.00
2023-01-19T17:38:20.780Z,0.20
2023-01-19T17:41:13.289Z,1.60
2023-01-19T17:44:01.933Z,0.30
2023-01-19T17:46:51.445Z,0.40
2023-01-19T17:49:39.041Z,0.20
2023-01-19T17:52:26.589Z,0.70
2023-01-19T17:55:18.612Z,0.40
2023-01-19T17:58:08.727Z,0.40
2023-01-19T18:01:18.578Z,0.30
2023-01-19T18:04:11.208Z,0.20
2023-01-19T18:07:00.140Z,0.50
2023-01-19T18:09:48.151Z,0.00
2023-01-19T18:12:37.427Z,0.00
2023-01-19T18:15:26.175Z,1.30
2023-01-19T18:18:21.930Z,2.30
2023-01-19T18:21:11.262Z,0.00
2023-01-19T18:24:03.587Z,-0.10
2023-01-19T18:26:57.853Z,0.00
2023-01-19T18:29:52.475Z,0.40
2023-01-19T18:32:43.497Z,0.00
2023-01-19T18:35:34.511Z,0.00
2023-01-19T18:38:27.120Z,0.10
2023-01-19T18:41:16.581Z,-0.40
2023-01-19T18:44:05.503Z,-0.20
2023-01-19T18:46:56.999Z,-0.30
2023-01-19T18:49:52.694Z,0.20
2023-01-19T18:52:48.963Z,-0.40
2023-01-19T18:55:51.947Z,-1.20
2023-01-19T18:58:42.897Z,-0.60
2023-01-19T19:01:55.306Z,-0.60
2023-01-19T19:04:44.830Z,-0.60
2023-01-19T19:07:33.673Z,1.50
2023-01-19T19:10:22.284Z,2.00
2023-01-19T19:13:16.200Z,-0.80
2023-01-19T19:16:05.345Z,-0.90
2023-01-19T19:18:53.858Z,-0.50
2023-01-19T19:21:43.211Z,-1.20
2023-01-19T19:24:34.299Z,-1.00
2023-01-19T19:27:22.202Z,-0.60
2023-01-19T19:30:11.091Z,-1.00
2023-01-19T19:33:02.344Z,-0.80
2023-01-19T19:35:58.396Z,-1.00
2023-01-19T19:38:47.844Z,-0.90
2023-01-19T19:41:37.355Z,-0.90
2023-01-19T19:44:27.156Z,-1.00
2023-01-19T19:47:14.582Z,-0.90
2023-01-19T19:50:02.847Z,-0.90
2023-01-19T19:52:51.080Z,-0.90
2023-01-19T19:55:40.103Z,-0.90
2023-01-19T19:58:28.156Z,-0.90
2023-01-19T20:01:16.836Z,-1.00
2023-01-19T20:04:08.921Z,-1.00
2023-01-19T20:06:56.309Z,-1.00
2023-01-19T20:09:45.594Z,-0.90
2023-01-19T20:12:34.255Z,-0.80
2023-01-19T20:15:22.701Z,-0.40
2023-01-19T20:18:10.884Z,-0.70
2023-01-19T20:20:59.179Z,-0.60
2023-01-19T20:23:46.986Z,-0.60
2023-01-19T20:26:37.884Z,-0.60
2023-01-19T20:29:27.345Z,-0.60
2023-01-19T20:32:14.792Z,-0.50
2023-01-19T20:35:06.409Z,-0.40
2023-01-19T20:37:54.173Z,-0.50
2023-01-19T20:40:47.039Z,-0.20
2023-01-19T20:43:34.822Z,-0.40
2023-01-19T20:46:24.710Z,-0.30
2023-01-19T20:49:12.150Z,-0.40
2023-01-19T20:52:00.636Z,-0.30
2023-01-19T20:54:48.267Z,-0.30
2023-01-19T20:57:36.169Z,-0.30
2023-01-19T21:00:23.746Z,0.20
2023-01-19T21:03:13.075Z,0.30
2023-01-19T21:06:00.833Z,0.00
2023-01-19T21:08:50.934Z,-0.10
2023-01-19T21:11:41.644Z,-0.10
2023-01-19T21:14:34.002Z,-0.10
2023-01-19T21:17:21.641Z,0.30
2023-01-19T21:20:15.296Z,0.20
2023-01-19T21:23:03.267Z,0.00
2023-01-19T21:25:52.209Z,-0.20
2023-01-19T21:28:40.995Z,-0.30
2023-01-19T21:31:29.752Z,-0.40
2023-01-19T21:34:21.141Z,-0.40
2023-01-19T21:37:10.510Z,-0.60
2023-01-19T21:39:59.868Z,0.40
2023-01-19T21:42:48.417Z,-0.20
2023-01-19T21:45:37.122Z,0.00
2023-01-19T21:48:25.072Z,-0.20
2023-01-19T21:51:16.286Z,-0.20
2023-01-19T21:54:07.528Z,0.10
2023-01-19T21:56:55.213Z,0.10
2023-01-19T21:59:48.837Z,0.30
2023-01-19T22:02:39.084Z,0.30
2023-01-19T22:05:28.008Z,0.20
2023-01-19T22:08:15.783Z,0.20
2023-01-19T22:11:09.209Z,-2.10
2023-01-19T22:14:01.135Z,-0.10
2023-01-19T22:16:51.703Z,-0.10
2023-01-19T22:19:41.713Z,0.00
2023-01-19T22:22:30.392Z,-0.10
2023-01-19T22:25:22.210Z,-0.10
2023-01-19T22:28:12.192Z,-0.10
2023-01-19T22:31:04.247Z,0.30
2023-01-19T22:33:53.260Z,0.30
2023-01-19T22:36:42.237Z,0.30
2023-01-19T22:39:30.533Z,-0.30
2023-01-19T22:42:19.191Z,1.50
2023-01-19T22:45:10.318Z,0.40
2023-01-19T22:47:58.214Z,0.40
2023-01-19T22:50:46.313Z,0.30
2023-01-19T22:53:35.858Z,0.40
2023-01-19T22:56:24.564Z,0.30
2023-01-19T22:59:15.263Z,0.40
2023-01-19T23:02:04.649Z,0.30
2023-01-19T23:04:52.937Z,0.30
2023-01-19T23:07:43.253Z,0.40
2023-01-19T23:10:31.142Z,0.40
2023-01-19T23:13:19.022Z,0.50
2023-01-19T23:16:07.086Z,0.60
2023-01-19T23:18:56.747Z,0.70
2023-01-19T23:21:45.732Z,0.20
2023-01-19T23:24:37.488Z,0.50
2023-01-19T23:27:25.453Z,0.40
2023-01-19T23:30:13.761Z,0.50
2023-01-19T23:33:01.654Z,0.70
2023-01-19T23:35:53.477Z,0.40
2023-01-19T23:38:42.179Z,0.50
2023-01-19T23:41:32.295Z,-1.60
2023-01-19T23:44:20.566Z,0.50
2023-01-19T23:47:09.131Z,0.20
2023-01-19T23:49:58.501Z,0.70
2023-01-19T23:52:48.948Z,0.50
2023-01-19T23:55:39.124Z,0.40
2023-01-19T23:58:28.231Z,0.40
